sensor_id;sensor_type;location;lat;lon;timestamp;P1;durP1;ratioP1;P2;durP2;ratioP2
73136;SDS011;67767;45.636;11.756;2023-02-13T00:01:56;86.07;;;42.00;;
73136;SDS011;67767;45.636;11.756;2023-02-13T00:04:22;81.67;;;41.70;;
73136;SDS011;67767;45.636;11.756;2023-02-13T00:06:48;81.53;;;41.37;;
73136;SDS011;67767;45.636;11.756;2023-02-13T00:09:13;85.13;;;42.17;;
73136;SDS011;67767;45.636;11.756;2023-02-13T00:11:39;91.43;;;43.28;;
73136;SDS011;67767;45.636;11.756;2023-02-13T00:14:05;92.03;;;41.83;;
73136;SDS011;67767;45.636;11.756;2023-02-13T00:16:31;85.80;;;40.63;;
73136;SDS011;67767;45.636;11.756;2023-02-13T00:18:57;87.85;;;39.72;;
73136;SDS011;67767;45.636;11.756;2023-02-13T00:21:22;78.87;;;38.30;;
73136;SDS011;67767;45.636;11.756;2023-02-13T00:23:48;81.40;;;38.72;;
73136;SDS011;67767;45.636;11.756;2023-02-13T00:26:14;71.73;;;36.20;;
73136;SDS011;67767;45.636;11.756;2023-02-13T00:28:41;76.82;;;37.20;;
73136;SDS011;67767;45.636;11.756;2023-02-13T00:31:08;75.97;;;37.53;;
73136;SDS011;67767;45.636;11.756;2023-02-13T00:33:35;81.37;;;38.20;;
73136;SDS011;67767;45.636;11.756;2023-02-13T00:36:04;71.82;;;35.50;;
73136;SDS011;67767;45.636;11.756;2023-02-13T00:38:35;73.47;;;37.63;;
73136;SDS011;67767;45.636;11.756;2023-02-13T00:41:01;81.22;;;38.13;;
73136;SDS011;67767;45.636;11.756;2023-02-13T00:43:28;80.90;;;37.30;;
73136;SDS011;67767;45.636;11.756;2023-02-13T00:45:54;70.93;;;37.10;;
73136;SDS011;67767;45.636;11.756;2023-02-13T00:48:20;70.15;;;36.17;;
73136;SDS011;67767;45.636;11.756;2023-02-13T00:50:46;79.17;;;37.70;;
73136;SDS011;67767;45.636;11.756;2023-02-13T00:53:12;77.72;;;37.08;;
73136;SDS011;67767;45.636;11.756;2023-02-13T00:55:37;89.10;;;39.35;;
73136;SDS011;67767;45.636;11.756;2023-02-13T00:58:03;79.20;;;37.40;;
73136;SDS011;67767;45.636;11.756;2023-02-13T01:00:29;81.78;;;38.03;;
73136;SDS011;67767;45.636;11.756;2023-02-13T01:02:55;78.13;;;37.47;;
73136;SDS011;67767;45.636;11.756;2023-02-13T01:05:20;79.27;;;37.83;;
73136;SDS011;67767;45.636;11.756;2023-02-13T01:07:46;85.10;;;38.90;;
73136;SDS011;67767;45.636;11.756;2023-02-13T01:10:12;86.17;;;39.37;;
73136;SDS011;67767;45.636;11.756;2023-02-13T01:12:37;88.20;;;40.63;;
73136;SDS011;67767;45.636;11.756;2023-02-13T01:15:04;111.72;;;47.80;;
73136;SDS011;67767;45.636;11.756;2023-02-13T01:17:30;128.45;;;52.50;;
73136;SDS011;67767;45.636;11.756;2023-02-13T01:19:56;138.07;;;56.93;;
73136;SDS011;67767;45.636;11.756;2023-02-13T01:22:22;181.65;;;77.72;;
73136;SDS011;67767;45.636;11.756;2023-02-13T01:24:47;148.37;;;61.07;;
73136;SDS011;67767;45.636;11.756;2023-02-13T01:27:13;138.68;;;59.03;;
73136;SDS011;67767;45.636;11.756;2023-02-13T01:29:38;129.30;;;55.50;;
73136;SDS011;67767;45.636;11.756;2023-02-13T01:32:04;106.57;;;46.67;;
73136;SDS011;67767;45.636;11.756;2023-02-13T01:34:31;93.30;;;41.50;;
73136;SDS011;67767;45.636;11.756;2023-02-13T01:36:57;88.50;;;39.50;;
73136;SDS011;67767;45.636;11.756;2023-02-13T01:39:22;85.73;;;39.90;;
73136;SDS011;67767;45.636;11.756;2023-02-13T01:41:48;138.32;;;58.95;;
73136;SDS011;67767;45.636;11.756;2023-02-13T01:47:10;109.43;;;49.15;;
73136;SDS011;67767;45.636;11.756;2023-02-13T01:49:39;77.97;;;35.65;;
73136;SDS011;67767;45.636;11.756;2023-02-13T01:52:07;70.93;;;35.22;;
73136;SDS011;67767;45.636;11.756;2023-02-13T01:54:35;68.13;;;33.67;;
73136;SDS011;67767;45.636;11.756;2023-02-13T01:57:05;63.88;;;31.08;;
73136;SDS011;67767;45.636;11.756;2023-02-13T01:59:41;61.28;;;31.15;;
73136;SDS011;67767;45.636;11.756;2023-02-13T02:02:08;67.07;;;31.33;;
73136;SDS011;67767;45.636;11.756;2023-02-13T02:04:35;61.50;;;29.38;;
73136;SDS011;67767;45.636;11.756;2023-02-13T02:07:06;62.40;;;30.58;;
73136;SDS011;67767;45.636;11.756;2023-02-13T02:09:36;62.80;;;28.83;;
73136;SDS011;67767;45.636;11.756;2023-02-13T02:12:09;61.70;;;29.23;;
73136;SDS011;67767;45.636;11.756;2023-02-13T02:14:40;55.65;;;26.52;;
73136;SDS011;67767;45.636;11.756;2023-02-13T02:17:07;49.35;;;25.13;;
73136;SDS011;67767;45.636;11.756;2023-02-13T02:19:37;53.10;;;24.67;;
73136;SDS011;67767;45.636;11.756;2023-02-13T02:22:18;55.10;;;27.08;;
73136;SDS011;67767;45.636;11.756;2023-02-13T02:28:03;50.17;;;24.63;;
73136;SDS011;67767;45.636;11.756;2023-02-13T02:44:24;47.08;;;24.02;;
73136;SDS011;67767;45.636;11.756;2023-02-13T02:47:07;44.95;;;21.13;;
73136;SDS011;67767;45.636;11.756;2023-02-13T02:50:02;42.75;;;21.55;;
73136;SDS011;67767;45.636;11.756;2023-02-13T02:52:56;49.00;;;20.70;;
73136;SDS011;67767;45.636;11.756;2023-02-13T03:01:34;38.63;;;18.90;;
73136;SDS011;67767;45.636;11.756;2023-02-13T03:04:36;41.33;;;20.33;;
73136;SDS011;67767;45.636;11.756;2023-02-13T03:07:23;43.33;;;20.80;;
73136;SDS011;67767;45.636;11.756;2023-02-13T03:09:55;37.53;;;19.95;;
73136;SDS011;67767;45.636;11.756;2023-02-13T03:12:48;41.67;;;18.77;;
73136;SDS011;67767;45.636;11.756;2023-02-13T03:15:39;41.35;;;20.30;;
73136;SDS011;67767;45.636;11.756;2023-02-13T03:18:27;36.80;;;18.43;;
73136;SDS011;67767;45.636;11.756;2023-02-13T03:21:18;38.03;;;18.38;;
73136;SDS011;67767;45.636;11.756;2023-02-13T03:29:48;36.33;;;18.33;;
73136;SDS011;67767;45.636;11.756;2023-02-13T03:32:52;32.33;;;17.37;;
73136;SDS011;67767;45.636;11.756;2023-02-13T03:41:03;33.38;;;15.77;;
73136;SDS011;67767;45.636;11.756;2023-02-13T03:43:48;32.65;;;15.40;;
73136;SDS011;67767;45.636;11.756;2023-02-13T03:46:28;34.30;;;14.03;;
73136;SDS011;67767;45.636;11.756;2023-02-13T03:48:58;33.42;;;15.80;;
73136;SDS011;67767;45.636;11.756;2023-02-13T03:51:57;34.13;;;16.27;;
73136;SDS011;67767;45.636;11.756;2023-02-13T03:54:31;34.08;;;15.27;;
73136;SDS011;67767;45.636;11.756;2023-02-13T03:57:38;34.08;;;15.93;;
73136;SDS011;67767;45.636;11.756;2023-02-13T04:00:24;35.13;;;15.47;;
73136;SDS011;67767;45.636;11.756;2023-02-13T04:02:59;31.95;;;15.30;;
73136;SDS011;67767;45.636;11.756;2023-02-13T04:05:32;31.48;;;15.38;;
73136;SDS011;67767;45.636;11.756;2023-02-13T04:08:04;33.95;;;15.25;;
73136;SDS011;67767;45.636;11.756;2023-02-13T04:10:30;34.60;;;16.07;;
73136;SDS011;67767;45.636;11.756;2023-02-13T04:13:09;34.72;;;16.65;;
73136;SDS011;67767;45.636;11.756;2023-02-13T04:15:48;44.40;;;18.70;;
73136;SDS011;67767;45.636;11.756;2023-02-13T04:18:28;39.08;;;18.30;;
73136;SDS011;67767;45.636;11.756;2023-02-13T04:20:56;37.20;;;18.98;;
73136;SDS011;67767;45.636;11.756;2023-02-13T04:23:25;43.43;;;19.70;;
73136;SDS011;67767;45.636;11.756;2023-02-13T04:25:51;41.05;;;20.08;;
73136;SDS011;67767;45.636;11.756;2023-02-13T04:28:19;45.20;;;18.92;;
73136;SDS011;67767;45.636;11.756;2023-02-13T04:30:45;45.90;;;20.23;;
73136;SDS011;67767;45.636;11.756;2023-02-13T04:33:10;42.47;;;19.30;;
73136;SDS011;67767;45.636;11.756;2023-02-13T04:35:36;41.10;;;18.53;;
73136;SDS011;67767;45.636;11.756;2023-02-13T04:38:02;39.15;;;18.52;;
73136;SDS011;67767;45.636;11.756;2023-02-13T04:40:28;35.07;;;17.27;;
73136;SDS011;67767;45.636;11.756;2023-02-13T04:42:53;33.97;;;17.08;;
73136;SDS011;67767;45.636;11.756;2023-02-13T04:45:19;30.77;;;15.90;;
73136;SDS011;67767;45.636;11.756;2023-02-13T04:47:51;33.75;;;16.45;;
73136;SDS011;67767;45.636;11.756;2023-02-13T04:50:19;37.47;;;17.60;;
73136;SDS011;67767;45.636;11.756;2023-02-13T04:52:45;40.50;;;17.80;;
73136;SDS011;67767;45.636;11.756;2023-02-13T04:55:11;33.83;;;15.13;;
73136;SDS011;67767;45.636;11.756;2023-02-13T04:57:37;34.80;;;15.32;;
73136;SDS011;67767;45.636;11.756;2023-02-13T05:00:03;33.57;;;14.90;;
73136;SDS011;67767;45.636;11.756;2023-02-13T05:02:30;28.92;;;14.75;;
73136;SDS011;67767;45.636;11.756;2023-02-13T05:04:56;35.60;;;16.27;;
73136;SDS011;67767;45.636;11.756;2023-02-13T05:07:21;33.93;;;15.33;;
73136;SDS011;67767;45.636;11.756;2023-02-13T05:09:47;30.52;;;15.55;;
73136;SDS011;67767;45.636;11.756;2023-02-13T05:12:13;33.97;;;16.73;;
73136;SDS011;67767;45.636;11.756;2023-02-13T05:14:38;33.63;;;15.93;;
73136;SDS011;67767;45.636;11.756;2023-02-13T05:17:04;31.23;;;14.90;;
73136;SDS011;67767;45.636;11.756;2023-02-13T05:19:30;32.70;;;14.38;;
73136;SDS011;67767;45.636;11.756;2023-02-13T05:21:55;28.20;;;13.60;;
73136;SDS011;67767;45.636;11.756;2023-02-13T05:24:40;31.30;;;14.77;;
73136;SDS011;67767;45.636;11.756;2023-02-13T05:27:05;48.80;;;19.27;;
73136;SDS011;67767;45.636;11.756;2023-02-13T05:29:31;43.60;;;18.05;;
73136;SDS011;67767;45.636;11.756;2023-02-13T05:31:57;40.03;;;17.47;;
73136;SDS011;67767;45.636;11.756;2023-02-13T05:34:24;33.47;;;15.75;;
73136;SDS011;67767;45.636;11.756;2023-02-13T05:36:52;32.10;;;13.00;;
73136;SDS011;67767;45.636;11.756;2023-02-13T05:39:17;42.83;;;18.93;;
73136;SDS011;67767;45.636;11.756;2023-02-13T05:41:44;31.50;;;14.67;;
73136;SDS011;67767;45.636;11.756;2023-02-13T05:44:11;39.75;;;15.38;;
73136;SDS011;67767;45.636;11.756;2023-02-13T05:46:37;35.10;;;14.48;;
73136;SDS011;67767;45.636;11.756;2023-02-13T05:49:05;35.63;;;14.15;;
73136;SDS011;67767;45.636;11.756;2023-02-13T05:51:31;27.73;;;12.47;;
73136;SDS011;67767;45.636;11.756;2023-02-13T05:53:57;29.80;;;13.20;;
73136;SDS011;67767;45.636;11.756;2023-02-13T05:56:22;34.17;;;13.83;;
73136;SDS011;67767;45.636;11.756;2023-02-13T05:58:52;30.83;;;14.48;;
73136;SDS011;67767;45.636;11.756;2023-02-13T06:01:18;50.42;;;20.40;;
73136;SDS011;67767;45.636;11.756;2023-02-13T06:03:45;43.67;;;18.23;;
73136;SDS011;67767;45.636;11.756;2023-02-13T06:06:11;41.00;;;17.20;;
73136;SDS011;67767;45.636;11.756;2023-02-13T06:08:37;41.63;;;17.67;;
73136;SDS011;67767;45.636;11.756;2023-02-13T06:11:03;32.00;;;13.68;;
73136;SDS011;67767;45.636;11.756;2023-02-13T06:13:29;44.13;;;18.67;;
73136;SDS011;67767;45.636;11.756;2023-02-13T06:15:55;55.40;;;26.03;;
73136;SDS011;67767;45.636;11.756;2023-02-13T06:18:21;31.40;;;13.60;;
73136;SDS011;67767;45.636;11.756;2023-02-13T06:20:47;29.52;;;13.30;;
73136;SDS011;67767;45.636;11.756;2023-02-13T06:23:12;29.80;;;13.00;;
73136;SDS011;67767;45.636;11.756;2023-02-13T06:25:38;32.45;;;18.65;;
73136;SDS011;67767;45.636;11.756;2023-02-13T06:28:04;31.27;;;15.50;;
73136;SDS011;67767;45.636;11.756;2023-02-13T06:30:30;37.13;;;17.83;;
73136;SDS011;67767;45.636;11.756;2023-02-13T06:32:56;42.95;;;18.92;;
73136;SDS011;67767;45.636;11.756;2023-02-13T06:35:22;39.23;;;19.63;;
73136;SDS011;67767;45.636;11.756;2023-02-13T06:37:48;40.83;;;17.27;;
73136;SDS011;67767;45.636;11.756;2023-02-13T06:40:14;32.13;;;14.20;;
73136;SDS011;67767;45.636;11.756;2023-02-13T06:42:41;30.20;;;13.25;;
73136;SDS011;67767;45.636;11.756;2023-02-13T06:45:08;34.90;;;14.20;;
73136;SDS011;67767;45.636;11.756;2023-02-13T06:47:34;33.00;;;15.38;;
73136;SDS011;67767;45.636;11.756;2023-02-13T06:50:00;37.13;;;16.33;;
73136;SDS011;67767;45.636;11.756;2023-02-13T06:52:26;31.60;;;16.50;;
73136;SDS011;67767;45.636;11.756;2023-02-13T06:54:52;27.02;;;12.85;;
73136;SDS011;67767;45.636;11.756;2023-02-13T06:57:17;26.67;;;12.60;;
73136;SDS011;67767;45.636;11.756;2023-02-13T06:59:43;23.05;;;11.02;;
73136;SDS011;67767;45.636;11.756;2023-02-13T07:02:10;26.70;;;11.82;;
73136;SDS011;67767;45.636;11.756;2023-02-13T07:04:36;27.60;;;12.40;;
73136;SDS011;67767;45.636;11.756;2023-02-13T07:07:02;27.52;;;12.93;;
73136;SDS011;67767;45.636;11.756;2023-02-13T07:09:27;27.25;;;13.15;;
73136;SDS011;67767;45.636;11.756;2023-02-13T07:11:54;31.80;;;12.97;;
73136;SDS011;67767;45.636;11.756;2023-02-13T07:14:20;25.70;;;12.25;;
73136;SDS011;67767;45.636;11.756;2023-02-13T07:16:45;23.77;;;10.93;;
73136;SDS011;67767;45.636;11.756;2023-02-13T07:19:11;30.13;;;11.90;;
73136;SDS011;67767;45.636;11.756;2023-02-13T07:21:37;26.13;;;11.03;;
73136;SDS011;67767;45.636;11.756;2023-02-13T07:24:03;29.10;;;11.10;;
73136;SDS011;67767;45.636;11.756;2023-02-13T07:26:29;29.77;;;11.95;;
73136;SDS011;67767;45.636;11.756;2023-02-13T07:28:54;28.77;;;14.10;;
73136;SDS011;67767;45.636;11.756;2023-02-13T07:31:20;26.83;;;12.93;;
73136;SDS011;67767;45.636;11.756;2023-02-13T07:33:49;28.92;;;13.48;;
73136;SDS011;67767;45.636;11.756;2023-02-13T07:36:15;26.07;;;13.10;;
73136;SDS011;67767;45.636;11.756;2023-02-13T07:38:40;28.88;;;14.23;;
73136;SDS011;67767;45.636;11.756;2023-02-13T07:41:06;30.57;;;14.60;;
73136;SDS011;67767;45.636;11.756;2023-02-13T07:43:32;29.20;;;15.65;;
73136;SDS011;67767;45.636;11.756;2023-02-13T07:45:58;32.55;;;16.92;;
73136;SDS011;67767;45.636;11.756;2023-02-13T07:48:26;29.63;;;14.83;;
73136;SDS011;67767;45.636;11.756;2023-02-13T07:50:52;30.30;;;15.35;;
73136;SDS011;67767;45.636;11.756;2023-02-13T07:53:19;29.17;;;15.18;;
73136;SDS011;67767;45.636;11.756;2023-02-13T07:55:44;30.50;;;13.93;;
73136;SDS011;67767;45.636;11.756;2023-02-13T07:58:10;29.37;;;14.43;;
73136;SDS011;67767;45.636;11.756;2023-02-13T08:00:36;27.95;;;13.80;;
73136;SDS011;67767;45.636;11.756;2023-02-13T08:03:02;29.53;;;14.90;;
73136;SDS011;67767;45.636;11.756;2023-02-13T08:05:28;31.75;;;14.63;;
73136;SDS011;67767;45.636;11.756;2023-02-13T08:07:56;30.10;;;14.30;;
73136;SDS011;67767;45.636;11.756;2023-02-13T08:10:21;32.10;;;15.53;;
73136;SDS011;67767;45.636;11.756;2023-02-13T08:13:06;30.33;;;14.25;;
73136;SDS011;67767;45.636;11.756;2023-02-13T08:15:33;34.17;;;15.40;;
73136;SDS011;67767;45.636;11.756;2023-02-13T08:17:58;29.87;;;14.30;;
73136;SDS011;67767;45.636;11.756;2023-02-13T08:20:24;26.97;;;13.50;;
73136;SDS011;67767;45.636;11.756;2023-02-13T08:22:50;24.43;;;14.03;;
73136;SDS011;67767;45.636;11.756;2023-02-13T08:25:15;26.77;;;13.40;;
73136;SDS011;67767;45.636;11.756;2023-02-13T08:27:41;22.87;;;13.23;;
73136;SDS011;67767;45.636;11.756;2023-02-13T08:30:07;25.48;;;12.73;;
73136;SDS011;67767;45.636;11.756;2023-02-13T08:32:33;25.47;;;11.77;;
73136;SDS011;67767;45.636;11.756;2023-02-13T08:34:59;26.33;;;11.77;;
73136;SDS011;67767;45.636;11.756;2023-02-13T08:37:25;24.07;;;11.33;;
73136;SDS011;67767;45.636;11.756;2023-02-13T08:39:51;21.08;;;10.85;;
73136;SDS011;67767;45.636;11.756;2023-02-13T08:42:16;20.73;;;11.30;;
73136;SDS011;67767;45.636;11.756;2023-02-13T08:44:42;23.45;;;10.27;;
73136;SDS011;67767;45.636;11.756;2023-02-13T08:47:08;20.55;;;10.25;;
73136;SDS011;67767;45.636;11.756;2023-02-13T08:49:34;17.17;;;9.50;;
73136;SDS011;67767;45.636;11.756;2023-02-13T08:52:01;23.90;;;10.55;;
73136;SDS011;67767;45.636;11.756;2023-02-13T08:54:28;26.83;;;12.75;;
73136;SDS011;67767;45.636;11.756;2023-02-13T08:56:54;21.52;;;12.05;;
73136;SDS011;67767;45.636;11.756;2023-02-13T08:59:20;20.30;;;11.20;;
73136;SDS011;67767;45.636;11.756;2023-02-13T09:01:46;22.48;;;10.80;;
73136;SDS011;67767;45.636;11.756;2023-02-13T09:04:12;28.27;;;10.75;;
73136;SDS011;67767;45.636;11.756;2023-02-13T09:06:40;24.97;;;11.80;;
73136;SDS011;67767;45.636;11.756;2023-02-13T09:09:06;22.17;;;11.13;;
73136;SDS011;67767;45.636;11.756;2023-02-13T09:11:32;23.88;;;11.70;;
73136;SDS011;67767;45.636;11.756;2023-02-13T09:13:58;22.83;;;11.33;;
73136;SDS011;67767;45.636;11.756;2023-02-13T09:16:23;25.02;;;11.75;;
73136;SDS011;67767;45.636;11.756;2023-02-13T09:18:49;20.47;;;10.13;;
73136;SDS011;67767;45.636;11.756;2023-02-13T09:21:16;18.48;;;9.45;;
73136;SDS011;67767;45.636;11.756;2023-02-13T09:23:43;19.45;;;9.48;;
73136;SDS011;67767;45.636;11.756;2023-02-13T09:26:10;21.40;;;9.57;;
73136;SDS011;67767;45.636;11.756;2023-02-13T09:28:37;20.43;;;8.87;;
73136;SDS011;67767;45.636;11.756;2023-02-13T09:31:13;17.08;;;9.07;;
73136;SDS011;67767;45.636;11.756;2023-02-13T09:33:41;20.23;;;9.30;;
73136;SDS011;67767;45.636;11.756;2023-02-13T09:36:11;19.00;;;7.95;;
73136;SDS011;67767;45.636;11.756;2023-02-13T09:38:39;18.02;;;8.65;;
73136;SDS011;67767;45.636;11.756;2023-02-13T09:41:10;96.60;;;31.60;;
73136;SDS011;67767;45.636;11.756;2023-02-13T09:43:50;28.10;;;11.45;;
73136;SDS011;67767;45.636;11.756;2023-02-13T09:46:20;30.77;;;9.38;;
73136;SDS011;67767;45.636;11.756;2023-02-13T09:49:00;18.33;;;7.13;;
73136;SDS011;67767;45.636;11.756;2023-02-13T09:51:31;13.32;;;5.20;;
73136;SDS011;67767;45.636;11.756;2023-02-13T09:54:00;12.97;;;5.57;;
73136;SDS011;67767;45.636;11.756;2023-02-13T10:01:53;13.02;;;6.07;;
73136;SDS011;67767;45.636;11.756;2023-02-13T10:04:45;12.23;;;5.83;;
73136;SDS011;67767;45.636;11.756;2023-02-13T10:15:39;11.65;;;5.18;;
73136;SDS011;67767;45.636;11.756;2023-02-13T10:18:20;15.10;;;5.70;;
73136;SDS011;67767;45.636;11.756;2023-02-13T10:20:53;16.48;;;5.82;;
73136;SDS011;67767;45.636;11.756;2023-02-13T10:23:29;15.10;;;6.05;;
73136;SDS011;67767;45.636;11.756;2023-02-13T10:26:00;27.63;;;8.07;;
73136;SDS011;67767;45.636;11.756;2023-02-13T10:28:44;15.52;;;6.72;;
73136;SDS011;67767;45.636;11.756;2023-02-13T10:31:39;13.83;;;6.80;;
73136;SDS011;67767;45.636;11.756;2023-02-13T10:34:10;17.33;;;7.80;;
73136;SDS011;67767;45.636;11.756;2023-02-13T10:36:42;17.30;;;7.80;;
73136;SDS011;67767;45.636;11.756;2023-02-13T10:41:53;12.00;;;6.30;;
73136;SDS011;67767;45.636;11.756;2023-02-13T10:57:56;10.70;;;5.00;;
73136;SDS011;67767;45.636;11.756;2023-02-13T11:00:34;10.38;;;4.20;;
73136;SDS011;67767;45.636;11.756;2023-02-13T11:03:17;11.68;;;4.90;;
73136;SDS011;67767;45.636;11.756;2023-02-13T11:05:48;10.82;;;5.35;;
73136;SDS011;67767;45.636;11.756;2023-02-13T11:08:16;10.75;;;5.03;;
73136;SDS011;67767;45.636;11.756;2023-02-13T11:10:47;13.97;;;5.80;;
73136;SDS011;67767;45.636;11.756;2023-02-13T11:13:19;19.42;;;5.95;;
73136;SDS011;67767;45.636;11.756;2023-02-13T11:15:55;11.82;;;5.93;;
73136;SDS011;67767;45.636;11.756;2023-02-13T11:18:21;9.85;;;5.88;;
73136;SDS011;67767;45.636;11.756;2023-02-13T11:20:57;10.90;;;5.57;;
73136;SDS011;67767;45.636;11.756;2023-02-13T11:28:57;9.85;;;5.35;;
73136;SDS011;67767;45.636;11.756;2023-02-13T11:31:30;10.93;;;5.13;;
73136;SDS011;67767;45.636;11.756;2023-02-13T11:33:58;8.52;;;4.43;;
73136;SDS011;67767;45.636;11.756;2023-02-13T11:36:41;9.83;;;5.93;;
73136;SDS011;67767;45.636;11.756;2023-02-13T11:39:20;11.57;;;5.32;;
73136;SDS011;67767;45.636;11.756;2023-02-13T11:41:47;12.38;;;5.70;;
73136;SDS011;67767;45.636;11.756;2023-02-13T11:44:20;9.77;;;5.47;;
73136;SDS011;67767;45.636;11.756;2023-02-13T11:46:52;11.82;;;4.97;;
73136;SDS011;67767;45.636;11.756;2023-02-13T11:49:20;10.10;;;5.00;;
73136;SDS011;67767;45.636;11.756;2023-02-13T11:51:51;10.23;;;5.32;;
73136;SDS011;67767;45.636;11.756;2023-02-13T11:57:20;9.73;;;4.95;;
73136;SDS011;67767;45.636;11.756;2023-02-13T12:08:39;8.90;;;5.00;;
73136;SDS011;67767;45.636;11.756;2023-02-13T12:11:23;10.05;;;4.63;;
73136;SDS011;67767;45.636;11.756;2023-02-13T12:14:03;12.75;;;5.50;;
73136;SDS011;67767;45.636;11.756;2023-02-13T12:19:04;11.50;;;6.00;;
73136;SDS011;67767;45.636;11.756;2023-02-13T12:21:51;10.18;;;5.60;;
73136;SDS011;67767;45.636;11.756;2023-02-13T12:32:36;10.23;;;5.70;;
73136;SDS011;67767;45.636;11.756;2023-02-13T12:37:54;13.32;;;7.05;;
73136;SDS011;67767;45.636;11.756;2023-02-13T12:48:23;12.43;;;6.15;;
73136;SDS011;67767;45.636;11.756;2023-02-13T13:26:48;12.07;;;6.53;;
73136;SDS011;67767;45.636;11.756;2023-02-13T13:28:52;12.25;;;7.20;;
73136;SDS011;67767;45.636;11.756;2023-02-13T13:31:20;13.10;;;7.68;;
73136;SDS011;67767;45.636;11.756;2023-02-13T13:33:50;13.32;;;8.55;;
73136;SDS011;67767;45.636;11.756;2023-02-13T13:41:28;13.93;;;8.60;;
73136;SDS011;67767;45.636;11.756;2023-02-13T13:46:51;11.90;;;7.32;;
73136;SDS011;67767;45.636;11.756;2023-02-13T13:49:41;19.25;;;9.20;;
73136;SDS011;67767;45.636;11.756;2023-02-13T13:55:03;14.65;;;7.88;;
73136;SDS011;67767;45.636;11.756;2023-02-13T14:02:37;14.02;;;8.50;;
73136;SDS011;67767;45.636;11.756;2023-02-13T14:07:44;15.38;;;9.25;;
73136;SDS011;67767;45.636;11.756;2023-02-13T14:12:47;17.65;;;9.25;;
73136;SDS011;67767;45.636;11.756;2023-02-13T14:18:06;22.43;;;11.47;;
73136;SDS011;67767;45.636;11.756;2023-02-13T14:31:28;16.57;;;10.53;;
73136;SDS011;67767;45.636;11.756;2023-02-13T14:34:04;14.32;;;9.50;;
73136;SDS011;67767;45.636;11.756;2023-02-13T14:36:32;16.80;;;10.35;;
73136;SDS011;67767;45.636;11.756;2023-02-13T14:39:16;15.95;;;9.88;;
73136;SDS011;67767;45.636;11.756;2023-02-13T14:46:48;18.17;;;11.00;;
73136;SDS011;67767;45.636;11.756;2023-02-13T14:49:20;17.45;;;10.25;;
73136;SDS011;67767;45.636;11.756;2023-02-13T14:51:53;16.98;;;10.15;;
73136;SDS011;67767;45.636;11.756;2023-02-13T14:59:52;17.63;;;10.13;;
73136;SDS011;67767;45.636;11.756;2023-02-13T15:02:29;17.00;;;9.95;;
73136;SDS011;67767;45.636;11.756;2023-02-13T15:05:03;22.42;;;10.65;;
73136;SDS011;67767;45.636;11.756;2023-02-13T15:07:33;18.98;;;10.50;;
73136;SDS011;67767;45.636;11.756;2023-02-13T15:13:05;20.83;;;10.60;;
73136;SDS011;67767;45.636;11.756;2023-02-13T15:15:58;20.25;;;10.98;;
73136;SDS011;67767;45.636;11.756;2023-02-13T15:18:39;22.60;;;10.95;;
73136;SDS011;67767;45.636;11.756;2023-02-13T15:21:12;19.15;;;11.15;;
73136;SDS011;67767;45.636;11.756;2023-02-13T15:23:40;20.90;;;10.80;;
73136;SDS011;67767;45.636;11.756;2023-02-13T15:26:06;20.67;;;12.25;;
73136;SDS011;67767;45.636;11.756;2023-02-13T15:28:33;21.33;;;11.00;;
73136;SDS011;67767;45.636;11.756;2023-02-13T15:31:03;22.92;;;11.45;;
73136;SDS011;67767;45.636;11.756;2023-02-13T15:33:43;20.43;;;11.23;;
73136;SDS011;67767;45.636;11.756;2023-02-13T15:36:12;19.63;;;10.55;;
73136;SDS011;67767;45.636;11.756;2023-02-13T15:38:45;23.13;;;11.90;;
73136;SDS011;67767;45.636;11.756;2023-02-13T15:41:21;22.40;;;12.25;;
73136;SDS011;67767;45.636;11.756;2023-02-13T15:43:52;22.87;;;11.40;;
73136;SDS011;67767;45.636;11.756;2023-02-13T15:46:26;20.05;;;11.52;;
73136;SDS011;67767;45.636;11.756;2023-02-13T15:48:57;20.23;;;11.82;;
73136;SDS011;67767;45.636;11.756;2023-02-13T15:51:37;21.88;;;11.65;;
73136;SDS011;67767;45.636;11.756;2023-02-13T15:54:04;22.73;;;13.37;;
73136;SDS011;67767;45.636;11.756;2023-02-13T15:56:48;28.03;;;13.37;;
73136;SDS011;67767;45.636;11.756;2023-02-13T15:59:15;24.67;;;13.10;;
73136;SDS011;67767;45.636;11.756;2023-02-13T16:01:43;43.60;;;17.52;;
73136;SDS011;67767;45.636;11.756;2023-02-13T16:04:11;31.88;;;15.93;;
73136;SDS011;67767;45.636;11.756;2023-02-13T16:06:39;25.80;;;14.55;;
73136;SDS011;67767;45.636;11.756;2023-02-13T16:09:26;27.73;;;15.10;;
73136;SDS011;67767;45.636;11.756;2023-02-13T16:12:04;29.55;;;14.30;;
73136;SDS011;67767;45.636;11.756;2023-02-13T16:14:46;25.60;;;15.40;;
73136;SDS011;67767;45.636;11.756;2023-02-13T16:19:51;31.10;;;16.20;;
73136;SDS011;67767;45.636;11.756;2023-02-13T16:24:57;28.35;;;16.10;;
73136;SDS011;67767;45.636;11.756;2023-02-13T16:27:30;30.23;;;16.83;;
73136;SDS011;67767;45.636;11.756;2023-02-13T16:30:00;38.58;;;16.75;;
73136;SDS011;67767;45.636;11.756;2023-02-13T16:32:32;37.58;;;18.40;;
73136;SDS011;67767;45.636;11.756;2023-02-13T16:35:15;33.70;;;16.57;;
73136;SDS011;67767;45.636;11.756;2023-02-13T16:37:47;31.50;;;17.13;;
73136;SDS011;67767;45.636;11.756;2023-02-13T16:40:35;30.80;;;17.35;;
73136;SDS011;67767;45.636;11.756;2023-02-13T16:48:39;29.13;;;16.17;;
73136;SDS011;67767;45.636;11.756;2023-02-13T16:51:06;30.05;;;16.27;;
73136;SDS011;67767;45.636;11.756;2023-02-13T16:53:33;31.75;;;18.23;;
73136;SDS011;67767;45.636;11.756;2023-02-13T16:56:00;30.67;;;16.90;;
73136;SDS011;67767;45.636;11.756;2023-02-13T16:58:27;32.30;;;19.73;;
73136;SDS011;67767;45.636;11.756;2023-02-13T17:00:53;38.28;;;19.30;;
73136;SDS011;67767;45.636;11.756;2023-02-13T17:03:19;33.70;;;19.10;;
73136;SDS011;67767;45.636;11.756;2023-02-13T17:05:45;39.57;;;20.63;;
73136;SDS011;67767;45.636;11.756;2023-02-13T17:08:10;35.97;;;19.52;;
73136;SDS011;67767;45.636;11.756;2023-02-13T17:10:37;40.87;;;21.23;;
73136;SDS011;67767;45.636;11.756;2023-02-13T17:15:35;37.78;;;21.15;;
73136;SDS011;67767;45.636;11.756;2023-02-13T17:18:04;34.58;;;19.38;;
73136;SDS011;67767;45.636;11.756;2023-02-13T17:20:31;44.80;;;22.47;;
73136;SDS011;67767;45.636;11.756;2023-02-13T17:22:59;52.15;;;23.25;;
73136;SDS011;67767;45.636;11.756;2023-02-13T17:25:28;40.67;;;21.95;;
73136;SDS011;67767;45.636;11.756;2023-02-13T17:28:15;43.27;;;22.73;;
73136;SDS011;67767;45.636;11.756;2023-02-13T17:30:50;42.50;;;22.45;;
73136;SDS011;67767;45.636;11.756;2023-02-13T17:35:46;42.92;;;22.05;;
73136;SDS011;67767;45.636;11.756;2023-02-13T17:38:12;39.40;;;21.37;;
73136;SDS011;67767;45.636;11.756;2023-02-13T17:40:38;42.25;;;22.55;;
73136;SDS011;67767;45.636;11.756;2023-02-13T17:43:05;39.58;;;21.95;;
73136;SDS011;67767;45.636;11.756;2023-02-13T17:45:32;43.83;;;21.97;;
73136;SDS011;67767;45.636;11.756;2023-02-13T17:47:58;43.28;;;22.85;;
73136;SDS011;67767;45.636;11.756;2023-02-13T17:50:25;48.22;;;25.60;;
73136;SDS011;67767;45.636;11.756;2023-02-13T17:52:52;47.05;;;27.23;;
73136;SDS011;67767;45.636;11.756;2023-02-13T17:55:20;50.43;;;25.90;;